Time;durP1;ratioP1;P1;durP2;ratioP2;P2;SDS_P1;SDS_P2;PMS_P1;PMS_P2;Temp;Humidity;BMP_temperature;BMP_pressure;BME280_temperature;BME280_humidity;BME280_pressure;Samples;Min_cycle;Max_cycle;Signal;HPM_P1;HPM_P2
2022/09/01 00:01:19;;;;;;;6.50;0.95;;;14.30;99.90;;;;;;5059993;28;20520;-67
2022/09/01 00:03:47;;;;;;;2.42;0.95;;;14.20;99.90;;;;;;5059171;28;20036;-66
2022/09/01 00:06:21;;;;;;;3.10;0.80;;;14.20;99.90;;;;;;5058047;28;20472;-66
2022/09/01 00:08:48;;;;;;;1.23;0.67;;;14.20;99.90;;;;;;5057778;28;20041;-66
2022/09/01 00:11:14;;;;;;;3.72;0.93;;;14.20;99.90;;;;;;5054603;28;20043;-66
2022/09/01 00:13:39;;;;;;;3.75;0.80;;;14.20;99.90;;;;;;5061860;28;20504;-66
2022/09/01 00:16:05;;;;;;;2.33;0.70;;;14.20;99.90;;;;;;5058992;28;20471;-65
2022/09/01 00:18:31;;;;;;;2.80;1.17;;;14.10;99.90;;;;;;5061142;28;20075;-66
2022/09/01 00:20:58;;;;;;;4.68;1.00;;;14.10;99.90;;;;;;5061778;28;20504;-66
2022/09/01 00:23:28;;;;;;;2.17;0.85;;;14.10;99.90;;;;;;5062948;28;20318;-66
2022/09/01 00:25:54;;;;;;;3.33;0.95;;;14.10;99.90;;;;;;5056624;28;20088;-66
2022/09/01 00:28:20;;;;;;;2.92;0.80;;;14.10;99.90;;;;;;5057302;28;20036;-66
2022/09/01 00:30:46;;;;;;;2.75;1.00;;;14.10;99.90;;;;;;5064226;28;20052;-66
2022/09/01 00:33:11;;;;;;;3.15;0.70;;;14.10;99.90;;;;;;5056534;28;20032;-66
2022/09/01 00:35:37;;;;;;;4.30;0.90;;;14.00;99.90;;;;;;5066521;28;20473;-66
2022/09/01 00:38:03;;;;;;;4.38;1.10;;;14.00;99.90;;;;;;5056787;28;20068;-66
2022/09/01 00:40:29;;;;;;;3.08;0.80;;;14.00;99.90;;;;;;5064076;28;20057;-67
2022/09/01 00:42:54;;;;;;;2.05;0.55;;;14.00;99.90;;;;;;5042817;28;20051;-66
2022/09/01 00:45:20;;;;;;;4.88;0.90;;;14.00;99.90;;;;;;5061529;28;20043;-67
2022/09/01 00:47:47;;;;;;;2.35;0.85;;;13.90;99.90;;;;;;5059175;28;20047;-66
2022/09/01 00:50:17;;;;;;;3.15;0.90;;;13.90;99.90;;;;;;5059608;28;20073;-66
2022/09/01 00:52:48;;;;;;;4.15;0.88;;;13.90;99.90;;;;;;5066522;28;20058;-66
2022/09/01 00:55:20;;;;;;;2.67;0.90;;;13.90;99.90;;;;;;5061283;28;20051;-66
2022/09/01 00:57:46;;;;;;;1.83;0.80;;;13.80;99.90;;;;;;5075089;28;20043;-66
2022/09/01 01:00:17;;;;;;;3.17;1.00;;;13.80;99.90;;;;;;5063086;28;20089;-69
2022/09/01 01:02:46;;;;;;;2.00;0.90;;;13.80;99.90;;;;;;5076757;28;20492;-69
2022/09/01 01:05:13;;;;;;;2.92;0.98;;;13.70;99.90;;;;;;5063701;28;20105;-69
2022/09/01 01:07:43;;;;;;;4.35;1.20;;;13.80;99.90;;;;;;5062184;28;20055;-69
2022/09/01 01:10:14;;;;;;;1.85;0.85;;;13.70;99.90;;;;;;5080936;28;20198;-69
2022/09/01 01:12:42;;;;;;;3.40;0.90;;;13.80;99.90;;;;;;5079373;28;20372;-69
2022/09/01 01:15:11;;;;;;;2.83;1.15;;;13.70;99.90;;;;;;5063205;28;20565;-69
2022/09/01 01:17:37;;;;;;;3.53;0.90;;;13.70;99.90;;;;;;5050620;28;20055;-69
2022/09/01 01:23:18;;;;;;;2.22;1.00;;;13.70;99.90;;;;;;5079265;28;20055;-69
2022/09/01 01:25:54;;;;;;;3.95;0.70;;;13.70;99.90;;;;;;5062620;28;20045;-69
2022/09/01 01:28:23;;;;;;;2.33;0.70;;;13.70;99.90;;;;;;5081503;28;20483;-69
2022/09/01 01:31:01;;;;;;;4.82;0.85;;;13.60;99.90;;;;;;5068509;28;20110;-69
2022/09/01 01:33:38;;;;;;;2.03;0.93;;;13.70;99.90;;;;;;5079221;28;20032;-69
2022/09/01 01:36:06;;;;;;;3.38;1.13;;;13.60;99.90;;;;;;5084890;28;20078;-69
2022/09/01 01:38:34;;;;;;;2.80;1.08;;;13.50;99.90;;;;;;5078694;28;20105;-69
2022/09/01 01:41:01;;;;;;;2.63;1.02;;;13.50;99.90;;;;;;5043269;28;20041;-69
2022/09/01 01:43:27;;;;;;;5.95;2.75;;;13.50;99.90;;;;;;5061148;28;20484;-69
2022/09/01 01:45:57;;;;;;;2.22;0.90;;;13.50;99.90;;;;;;5059222;28;20399;-69
2022/09/01 01:48:24;;;;;;;2.58;0.93;;;13.50;99.90;;;;;;5056923;28;20048;-69
2022/09/01 01:50:54;;;;;;;4.13;0.90;;;13.40;99.90;;;;;;5066416;28;20044;-69
2022/09/01 01:53:21;;;;;;;1.98;0.70;;;13.40;99.90;;;;;;5079814;28;20052;-69
2022/09/01 01:55:48;;;;;;;4.18;1.17;;;13.40;99.90;;;;;;5083120;28;20131;-69
2022/09/01 01:58:19;;;;;;;2.75;0.90;;;13.40;99.90;;;;;;5061533;28;20075;-69
2022/09/01 02:00:46;;;;;;;2.85;0.73;;;13.40;99.90;;;;;;5069498;28;20128;-69
2022/09/01 02:03:17;;;;;;;2.10;1.00;;;13.30;99.90;;;;;;5064165;28;20044;-69
2022/09/01 02:05:44;;;;;;;2.45;0.90;;;13.30;99.90;;;;;;5061321;28;20032;-69
2022/09/01 02:08:11;;;;;;;2.58;0.85;;;13.20;99.90;;;;;;5060806;28;20040;-69
2022/09/01 02:10:43;;;;;;;4.65;0.93;;;13.20;99.90;;;;;;5079955;28;20302;-69
2022/09/01 02:13:15;;;;;;;5.95;1.13;;;13.20;99.90;;;;;;5063337;28;20484;-69
2022/09/01 02:15:45;;;;;;;2.45;1.15;;;13.20;99.90;;;;;;5085037;28;20037;-68
2022/09/01 02:18:15;;;;;;;3.92;0.90;;;13.20;99.90;;;;;;5083271;28;20024;-69
2022/09/01 02:20:42;;;;;;;2.55;0.95;;;13.20;99.90;;;;;;5066669;28;20070;-69
2022/09/01 02:23:09;;;;;;;1.98;0.90;;;13.10;99.90;;;;;;5067663;28;20502;-69
2022/09/01 02:25:42;;;;;;;2.53;1.00;;;13.10;99.90;;;;;;5083075;28;20070;-69
2022/09/01 02:28:14;;;;;;;4.35;0.82;;;13.00;99.90;;;;;;5086914;28;20039;-69
2022/09/01 02:30:45;;;;;;;2.88;0.85;;;13.00;99.90;;;;;;5085398;28;20045;-69
2022/09/01 02:33:17;;;;;;;2.63;0.80;;;13.00;99.90;;;;;;5068539;28;20040;-69
2022/09/01 02:35:49;;;;;;;1.95;1.08;;;12.90;99.90;;;;;;5067685;28;20053;-68
2022/09/01 02:38:16;;;;;;;1.73;0.90;;;12.90;99.90;;;;;;5089832;28;20032;-68
2022/09/01 02:40:46;;;;;;;1.73;0.90;;;12.90;99.90;;;;;;5085693;28;20040;-68
2022/09/01 02:43:19;;;;;;;2.55;1.00;;;12.90;99.90;;;;;;5087458;28;20024;-68
2022/09/01 02:45:45;;;;;;;1.80;0.88;;;12.80;99.90;;;;;;5087598;28;20043;-68
2022/09/01 02:48:12;;;;;;;1.15;0.73;;;12.80;99.90;;;;;;5065839;28;20052;-68
2022/09/01 02:50:40;;;;;;;5.55;1.05;;;12.80;99.90;;;;;;5064118;28;20379;-68
2022/09/01 02:53:08;;;;;;;2.33;0.98;;;12.70;99.90;;;;;;5085704;28;20049;-68
2022/09/01 02:55:36;;;;;;;2.70;0.90;;;12.70;99.90;;;;;;5082256;28;20125;-68
2022/09/01 02:58:02;;;;;;;2.88;0.90;;;12.70;99.90;;;;;;5066759;28;20036;-68
2022/09/01 03:00:30;;;;;;;2.60;0.95;;;12.70;99.90;;;;;;5083643;28;20310;-68
2022/09/01 03:02:58;;;;;;;3.22;1.10;;;12.70;99.90;;;;;;5061594;28;20036;-68
2022/09/01 03:05:27;;;;;;;3.88;1.00;;;12.60;99.90;;;;;;5071417;28;20036;-68
2022/09/01 03:07:58;;;;;;;2.33;0.90;;;12.70;99.90;;;;;;5080237;28;20047;-68
2022/09/01 03:10:31;;;;;;;4.00;0.80;;;12.70;99.90;;;;;;5064994;28;20114;-68
2022/09/01 03:13:09;;;;;;;2.53;0.98;;;12.70;99.90;;;;;;5064239;28;20044;-68
2022/09/01 03:15:35;;;;;;;3.47;1.90;;;12.70;99.90;;;;;;5087182;28;20115;-68
2022/09/01 03:18:03;;;;;;;2.33;0.90;;;12.70;99.90;;;;;;5065708;28;20379;-68
2022/09/01 03:20:32;;;;;;;2.22;1.13;;;12.60;99.90;;;;;;5089838;28;20106;-68
2022/09/01 03:23:03;;;;;;;3.20;1.00;;;12.70;99.90;;;;;;5064895;28;20124;-68
2022/09/01 03:25:30;;;;;;;3.65;1.00;;;12.70;99.90;;;;;;5088325;28;20040;-68
2022/09/01 03:28:03;;;;;;;1.65;1.10;;;12.60;99.90;;;;;;5068603;28;20484;-68
2022/09/01 03:30:31;;;;;;;1.83;0.80;;;12.60;99.90;;;;;;5086640;28;20083;-68
2022/09/01 03:32:58;;;;;;;2.72;1.08;;;12.60;99.90;;;;;;5068346;28;20334;-68
2022/09/01 03:35:26;;;;;;;3.20;1.13;;;12.60;99.90;;;;;;5060794;28;20063;-68
2022/09/01 03:37:52;;;;;;;2.28;1.17;;;12.60;99.90;;;;;;5084860;28;20044;-68
2022/09/01 03:40:17;;;;;;;2.33;1.15;;;12.60;99.90;;;;;;5050123;28;20040;-68
2022/09/01 03:42:44;;;;;;;2.92;1.20;;;12.60;99.90;;;;;;5073554;28;20094;-68
2022/09/01 03:45:14;;;;;;;1.55;0.98;;;12.60;99.90;;;;;;5081676;28;20044;-68
2022/09/01 03:47:43;;;;;;;2.53;1.17;;;12.60;99.90;;;;;;5065907;28;20484;-68
2022/09/01 03:50:19;;;;;;;3.35;1.13;;;12.60;99.90;;;;;;5079955;28;20443;-68
2022/09/01 03:52:58;;;;;;;3.58;1.20;;;12.60;99.90;;;;;;5079995;28;20389;-68
2022/09/01 03:55:33;;;;;;;2.10;0.98;;;12.60;99.90;;;;;;5049106;28;20137;-68
2022/09/01 03:58:07;;;;;;;2.08;1.00;;;12.60;99.90;;;;;;5050752;28;20044;-69
2022/09/01 04:00:41;;;;;;;1.85;1.10;;;12.60;99.90;;;;;;5064211;28;20418;-68
2022/09/01 04:03:09;;;;;;;2.05;1.10;;;12.60;99.90;;;;;;5061038;28;20047;-68
2022/09/01 04:05:36;;;;;;;2.80;1.10;;;12.60;99.90;;;;;;5082777;28;20098;-68
2022/09/01 04:08:05;;;;;;;3.08;1.10;;;12.60;99.90;;;;;;5058150;28;20131;-68
2022/09/01 04:10:34;;;;;;;2.78;1.40;;;12.60;99.90;;;;;;5075723;28;20040;-68
2022/09/01 04:13:00;;;;;;;3.45;1.23;;;12.60;99.90;;;;;;5061000;28;20401;-68
2022/09/01 04:15:27;;;;;;;1.80;0.80;;;12.60;99.90;;;;;;5082259;28;20040;-68
2022/09/01 04:18:09;;;;;;;3.28;1.20;;;12.60;99.90;;;;;;5085813;28;20043;-68
2022/09/01 04:20:47;;;;;;;3.00;1.50;;;12.60;99.90;;;;;;5063068;28;20500;-69
2022/09/01 04:23:25;;;;;;;1.92;1.50;;;12.60;99.90;;;;;;5062020;28;20123;-68
2022/09/01 04:25:53;;;;;;;3.10;1.13;;;12.60;99.90;;;;;;5065022;28;20576;-68
2022/09/01 04:28:23;;;;;;;2.83;1.20;;;12.50;99.90;;;;;;5064438;28;20044;-68
2022/09/01 04:30:55;;;;;;;2.40;1.00;;;12.50;99.90;;;;;;5059881;28;20044;-68
2022/09/01 04:33:26;;;;;;;1.90;1.25;;;12.60;99.90;;;;;;5080334;28;20044;-68
2022/09/01 04:35:56;;;;;;;2.35;1.05;;;12.60;99.90;;;;;;5058439;28;20053;-68
2022/09/01 04:38:24;;;;;;;1.92;1.10;;;12.60;99.90;;;;;;5066665;28;20079;-68
2022/09/01 04:40:51;;;;;;;3.17;1.38;;;12.60;99.90;;;;;;5077148;28;20083;-69
2022/09/01 04:43:17;;;;;;;3.33;1.38;;;12.60;99.90;;;;;;5064368;28;20059;-68
2022/09/01 04:45:45;;;;;;;1.73;0.93;;;12.50;99.90;;;;;;5080214;28;20294;-67
2022/09/01 04:48:10;;;;;;;3.40;1.30;;;12.50;99.90;;;;;;5064958;28;20504;-69
2022/09/01 04:50:39;;;;;;;6.97;4.85;;;12.50;99.90;;;;;;5080764;28;20097;-68
2022/09/01 04:53:05;;;;;;;3.70;1.55;;;12.50;99.90;;;;;;5067237;28;20067;-68
2022/09/01 04:55:31;;;;;;;2.83;1.20;;;12.50;99.90;;;;;;5062790;28;20127;-68
2022/09/01 04:57:59;;;;;;;3.15;1.40;;;12.50;99.90;;;;;;5077135;28;20536;-68
2022/09/01 05:00:30;;;;;;;5.00;3.10;;;12.50;99.90;;;;;;5061051;28;20063;-69
2022/09/01 05:03:03;;;;;;;6.60;4.43;;;12.50;99.90;;;;;;5081445;28;20038;-68
2022/09/01 05:05:41;;;;;;;3.35;1.35;;;12.50;99.90;;;;;;5061353;28;20048;-68
2022/09/01 05:08:15;;;;;;;2.47;1.45;;;12.50;99.90;;;;;;5087624;28;20047;-68
2022/09/01 05:10:44;;;;;;;5.05;1.60;;;12.50;99.90;;;;;;5080700;28;20040;-68
2022/09/01 05:13:11;;;;;;;2.58;1.30;;;12.50;99.90;;;;;;5070258;28;20060;-68
2022/09/01 05:15:46;;;;;;;2.53;1.42;;;12.50;99.90;;;;;;5084091;28;20044;-69
2022/09/01 05:18:22;;;;;;;4.05;1.70;;;12.50;99.90;;;;;;5080543;28;20036;-69
2022/09/01 05:20:50;;;;;;;7.85;1.67;;;12.50;99.90;;;;;;5063222;28;20044;-69
2022/09/01 05:23:18;;;;;;;3.40;1.30;;;12.50;99.90;;;;;;5081811;28;20050;-69
2022/09/01 05:25:47;;;;;;;4.03;1.63;;;12.50;99.90;;;;;;5064167;28;20062;-69
2022/09/01 05:28:16;;;;;;;2.30;1.13;;;12.60;99.90;;;;;;5066468;28;20043;-69
2022/09/01 05:30:42;;;;;;;4.57;1.75;;;12.60;99.90;;;;;;5064391;28;20113;-69
2022/09/01 05:33:10;;;;;;;2.53;1.40;;;12.60;99.90;;;;;;5065772;28;20516;-70
2022/09/01 05:35:39;;;;;;;4.20;1.73;;;12.70;99.90;;;;;;5081911;28;20074;-70
2022/09/01 05:38:09;;;;;;;3.00;1.60;;;12.70;99.90;;;;;;5046801;28;20391;-70
2022/09/01 05:40:39;;;;;;;4.30;1.20;;;12.70;99.90;;;;;;5063720;28;20036;-70
2022/09/01 05:43:06;;;;;;;4.55;1.15;;;12.80;99.90;;;;;;5069118;28;20032;-69
2022/09/01 05:45:34;;;;;;;3.35;1.33;;;12.90;99.90;;;;;;5078605;28;20551;-67
2022/09/01 05:48:02;;;;;;;3.38;1.27;;;12.90;99.90;;;;;;5059755;28;20402;-69
2022/09/01 05:50:27;;;;;;;1.77;1.15;;;13.00;99.90;;;;;;5065497;28;20044;-67
2022/09/01 05:52:53;;;;;;;2.15;1.10;;;13.10;99.90;;;;;;5086427;28;20566;-67
2022/09/01 05:55:19;;;;;;;2.80;1.13;;;13.30;99.90;;;;;;5086550;28;20496;-69
2022/09/01 05:57:46;;;;;;;4.13;1.42;;;13.30;99.90;;;;;;5085271;28;20537;-70
2022/09/01 06:00:13;;;;;;;2.20;0.90;;;13.40;99.90;;;;;;5069893;28;20060;-70
2022/09/01 06:02:41;;;;;;;2.38;1.80;;;13.50;99.90;;;;;;5072139;28;20068;-70
2022/09/01 06:05:08;;;;;;;2.13;1.08;;;13.60;99.90;;;;;;5088229;28;20040;-70
2022/09/01 06:07:36;;;;;;;3.08;1.40;;;13.70;99.90;;;;;;5075455;28;20496;-70
2022/09/01 06:10:04;;;;;;;2.13;1.23;;;13.70;99.90;;;;;;5083849;28;20110;-70
2022/09/01 06:12:29;;;;;;;2.15;1.23;;;13.80;99.90;;;;;;5067938;28;20158;-69
2022/09/01 06:14:55;;;;;;;2.38;1.20;;;13.90;99.90;;;;;;5089080;28;20499;-68
2022/09/01 06:17:25;;;;;;;3.25;1.30;;;14.00;99.90;;;;;;5071362;28;20052;-69
2022/09/01 06:19:54;;;;;;;4.03;1.38;;;14.00;99.90;;;;;;5073477;28;20032;-69
2022/09/01 06:22:22;;;;;;;4.75;1.48;;;14.10;99.90;;;;;;5069099;28;20119;-69
2022/09/01 06:24:50;;;;;;;2.38;1.00;;;14.20;99.90;;;;;;5088430;28;20048;-69
2022/09/01 06:27:16;;;;;;;4.43;1.02;;;14.30;99.90;;;;;;5067424;28;20056;-70
2022/09/01 06:29:44;;;;;;;3.35;1.08;;;14.40;99.90;;;;;;5062090;28;20048;-69
2022/09/01 06:32:11;;;;;;;3.72;1.13;;;14.50;99.90;;;;;;5065893;28;20052;-69
2022/09/01 06:34:43;;;;;;;4.20;1.38;;;14.60;99.90;;;;;;5082906;28;20043;-69
2022/09/01 06:37:12;;;;;;;3.13;1.27;;;14.70;99.90;;;;;;5069067;28;20109;-70
2022/09/01 06:39:38;;;;;;;3.22;1.10;;;14.80;99.90;;;;;;5070705;28;20098;-69
2022/09/01 06:42:04;;;;;;;4.20;1.08;;;14.90;99.90;;;;;;5056566;28;20044;-69
2022/09/01 06:44:30;;;;;;;2.78;0.93;;;15.00;99.90;;;;;;5059800;28;20070;-69
2022/09/01 06:46:58;;;;;;;2.75;0.85;;;15.10;99.90;;;;;;5075837;28;20048;-69
2022/09/01 06:49:31;;;;;;;3.60;1.15;;;15.20;99.90;;;;;;5086510;28;20073;-70
2022/09/01 06:51:57;;;;;;;2.25;1.15;;;15.30;99.90;;;;;;5072868;28;20476;-69
2022/09/01 06:54:24;;;;;;;6.47;1.10;;;15.40;99.90;;;;;;5076609;28;20048;-69
2022/09/01 06:56:52;;;;;;;2.90;1.00;;;15.50;99.90;;;;;;5069497;28;20048;-74
2022/09/01 06:59:18;;;;;;;2.80;0.98;;;15.60;99.90;;;;;;5062089;28;20071;-72
2022/09/01 07:01:44;;;;;;;2.42;1.10;;;15.70;99.90;;;;;;5063345;28;20092;-70
2022/09/01 07:04:11;;;;;;;3.72;1.05;;;15.90;99.90;;;;;;5080184;28;20514;-68
2022/09/01 07:06:39;;;;;;;3.35;1.33;;;15.90;99.90;;;;;;5090728;28;20429;-69
2022/09/01 07:09:06;;;;;;;3.83;1.20;;;16.00;99.90;;;;;;5089934;28;20047;-70
2022/09/01 07:11:34;;;;;;;1.75;1.23;;;16.10;99.90;;;;;;5073787;28;20134;-70
2022/09/01 07:14:03;;;;;;;3.17;1.10;;;16.20;99.90;;;;;;5058082;28;20067;-70
2022/09/01 07:16:33;;;;;;;2.53;1.00;;;16.30;99.90;;;;;;5086635;28;20455;-70
2022/09/01 07:19:00;;;;;;;2.15;1.02;;;16.50;99.90;;;;;;5065794;28;20059;-70
2022/09/01 07:21:27;;;;;;;2.20;1.27;;;16.60;99.90;;;;;;5065862;28;20044;-71
2022/09/01 07:23:54;;;;;;;3.22;1.10;;;16.70;99.90;;;;;;5076735;28;20071;-70
2022/09/01 07:26:21;;;;;;;4.55;1.10;;;16.80;99.90;;;;;;5082570;28;20041;-70
2022/09/01 07:28:52;;;;;;;3.35;1.23;;;16.90;99.90;;;;;;5091028;28;20051;-70
2022/09/01 07:31:19;;;;;;;1.98;1.08;;;17.00;99.90;;;;;;5089823;28;20050;-70
2022/09/01 07:33:47;;;;;;;2.45;1.00;;;17.20;99.90;;;;;;5072014;28;20116;-70
2022/09/01 07:36:14;;;;;;;1.98;0.90;;;17.30;99.90;;;;;;5073563;28;20048;-70
2022/09/01 07:38:41;;;;;;;3.92;1.25;;;17.50;99.90;;;;;;5094336;28;20514;-70
2022/09/01 07:41:09;;;;;;;1.45;0.93;;;17.60;99.90;;;;;;5066300;28;20056;-70
2022/09/01 07:43:36;;;;;;;1.38;0.95;;;17.70;99.90;;;;;;5070321;28;20052;-70
2022/09/01 07:46:04;;;;;;;2.75;0.82;;;17.90;99.90;;;;;;5082819;28;20047;-70
2022/09/01 07:48:29;;;;;;;4.00;0.80;;;17.90;99.90;;;;;;5068876;28;20048;-70
2022/09/01 07:50:56;;;;;;;1.80;0.82;;;18.20;99.90;;;;;;5075724;28;20075;-70
2022/09/01 07:53:25;;;;;;;3.40;0.98;;;18.20;99.90;;;;;;5092749;28;20064;-70
2022/09/01 07:55:53;;;;;;;2.28;0.82;;;18.40;99.90;;;;;;5072120;28;20067;-70
2022/09/01 07:58:22;;;;;;;2.70;0.63;;;18.50;99.90;;;;;;5059985;28;20044;-69
2022/09/01 08:00:50;;;;;;;1.80;0.80;;;18.70;99.90;;;;;;5067805;28;20084;-70
2022/09/01 08:03:18;;;;;;;2.30;1.00;;;19.20;99.90;;;;;;5054619;28;20100;-70
2022/09/01 08:05:45;;;;;;;2.90;0.70;;;20.20;99.90;;;;;;5069406;28;20294;-71
2022/09/01 08:08:11;;;;;;;4.03;0.60;;;21.10;99.60;;;;;;5089338;28;20044;-71
2022/09/01 08:10:39;;;;;;;1.88;0.63;;;22.00;97.50;;;;;;5092125;28;20058;-71
2022/09/01 08:13:05;;;;;;;2.53;0.80;;;22.80;94.80;;;;;;5090705;28;20070;-70
2022/09/01 08:15:31;;;;;;;4.53;0.70;;;23.50;94.10;;;;;;5068103;28;20128;-70
2022/09/01 08:17:56;;;;;;;3.03;0.57;;;24.10;90.90;;;;;;5090754;28;20070;-71
2022/09/01 08:20:22;;;;;;;2.22;0.70;;;24.60;87.70;;;;;;5072224;28;20451;-70
2022/09/01 08:22:48;;;;;;;2.67;0.65;;;24.70;80.90;;;;;;5086235;28;20041;-65
2022/09/01 08:25:15;;;;;;;2.75;0.80;;;24.80;80.40;;;;;;5085105;28;20040;-66
2022/09/01 08:27:41;;;;;;;2.83;0.70;;;24.70;78.00;;;;;;5081911;28;20076;-65
2022/09/01 08:30:11;;;;;;;3.28;0.80;;;24.90;77.60;;;;;;5081894;28;20503;-75
2022/09/01 08:32:40;;;;;;;1.65;0.52;;;25.10;75.10;;;;;;5076542;28;20372;-74
2022/09/01 08:35:11;;;;;;;2.30;0.50;;;25.20;73.70;;;;;;5058902;28;20495;-65
2022/09/01 08:37:37;;;;;;;2.30;0.77;;;25.40;73.70;;;;;;5083488;28;20105;-62
2022/09/01 08:40:07;;;;;;;2.90;0.60;;;25.60;71.40;;;;;;5063870;28;20167;-63
2022/09/01 08:43:06;;;;;;;1.25;0.55;;;25.80;70.90;;;;;;5077888;28;20162;-63
2022/09/01 08:45:54;;;;;;;2.70;0.50;;;26.00;67.50;;;;;;5081389;28;20138;-63
2022/09/01 08:48:27;;;;;;;2.75;0.70;;;26.10;67.80;;;;;;5075335;28;20054;-64
2022/09/01 08:51:31;;;;;;;2.97;0.77;;;26.00;64.60;;;;;;5080871;28;20040;-63
2022/09/01 08:54:06;;;;;;;;;;;25.90;61.20;;;;;;5079992;28;20052;-64
2022/09/01 08:56:36;;;;;;;2.20;0.50;;;25.60;61.50;;;;;;5080530;28;19965;-65
2022/09/01 08:59:05;;;;;;;3.25;0.60;;;25.80;64.90;;;;;;5074453;28;20040;-64
2022/09/01 09:01:48;;;;;;;4.43;0.80;;;26.10;63.80;;;;;;5078640;28;20109;-63
2022/09/01 09:04:37;;;;;;;1.52;0.50;;;26.40;63.30;;;;;;5062940;28;20131;-63
2022/09/01 09:07:17;;;;;;;0.98;0.30;;;26.50;62.40;;;;;;5045713;28;20063;-63
2022/09/01 09:09:50;;;;;;;2.40;0.50;;;26.60;61.40;;;;;;5082345;28;20072;-61
2022/09/01 09:12:26;;;;;;;2.73;0.70;;;26.70;61.60;;;;;;5080539;28;20060;-62
2022/09/01 09:15:02;;;;;;;1.63;0.38;;;26.90;59.90;;;;;;5074994;28;20433;-61
2022/09/01 09:17:39;;;;;;;2.40;0.40;;;27.00;59.90;;;;;;5078282;28;20044;-62
2022/09/01 09:20:06;;;;;;;3.03;0.52;;;26.90;59.10;;;;;;5055538;28;20044;-63
2022/09/01 09:22:32;;;;;;;1.85;0.47;;;26.70;58.40;;;;;;5075793;28;20115;-61
2022/09/01 09:25:01;;;;;;;1.55;0.40;;;26.60;58.00;;;;;;5075079;28;20158;-61
2022/09/01 09:27:34;;;;;;;1.85;0.30;;;26.60;58.10;;;;;;5060456;28;20041;-62
2022/09/01 09:30:20;;;;;;;2.78;0.50;;;26.80;56.90;;;;;;5068712;28;20044;-59
2022/09/01 09:32:50;;;;;;;1.10;0.40;;;26.70;57.70;;;;;;5082116;28;20089;-61
2022/09/01 09:35:35;;;;;;;2.60;0.50;;;26.50;57.00;;;;;;5082092;28;20499;-63
2022/09/01 09:38:27;;;;;;;1.88;0.40;;;26.40;56.90;;;;;;5085374;28;20111;-62
2022/09/01 09:41:15;;;;;;;3.90;0.30;;;26.40;56.80;;;;;;5076631;28;20032;-61
2022/09/01 09:43:57;;;;;;;2.75;0.30;;;26.20;55.90;;;;;;5083310;28;20388;-61
2022/09/01 09:46:30;;;;;;;1.95;0.30;;;26.20;56.20;;;;;;5073620;28;20036;-61
2022/09/01 09:49:08;;;;;;;1.30;0.40;;;26.10;54.90;;;;;;5081703;28;20450;-61
2022/09/01 09:51:35;;;;;;;1.63;0.20;;;25.90;55.40;;;;;;5079308;28;20055;-61
2022/09/01 09:54:25;;;;;;;1.10;0.30;;;25.90;55.00;;;;;;5085085;28;20098;-61
2022/09/01 09:57:15;;;;;;;2.63;0.30;;;26.00;54.00;;;;;;5079626;28;20048;-62
2022/09/01 09:59:46;;;;;;;2.53;0.40;;;26.20;54.10;;;;;;5080566;28;20179;-61
2022/09/01 10:02:30;;;;;;;1.98;0.30;;;26.30;56.10;;;;;;5079139;28;20472;-61
2022/09/01 10:04:57;;;;;;;1.33;0.30;;;26.60;53.80;;;;;;5069168;28;20041;-63
2022/09/01 10:07:26;;;;;;;0.60;0.15;;;26.60;53.90;;;;;;5074634;28;20492;-66
2022/09/01 10:09:54;;;;;;;1.65;0.20;;;26.50;52.60;;;;;;5059646;28;20048;-65
2022/09/01 10:12:22;;;;;;;2.05;0.30;;;26.40;53.40;;;;;;5060210;28;20101;-66
2022/09/01 10:14:54;;;;;;;3.15;0.45;;;26.30;52.90;;;;;;5060440;28;20757;-66
2022/09/01 10:17:33;;;;;;;1.25;0.30;;;25.90;52.80;;;;;;5075982;28;20067;-64
2022/09/01 10:20:06;;;;;;;0.88;0.22;;;25.50;52.70;;;;;;5065804;28;20037;-67
2022/09/01 10:22:34;;;;;;;0.95;0.20;;;25.50;53.00;;;;;;5080326;28;20036;-65
2022/09/01 10:25:00;;;;;;;0.50;0.20;;;25.60;52.80;;;;;;5066637;28;20055;-64
2022/09/01 10:27:31;;;;;;;3.65;0.30;;;25.90;53.90;;;;;;5074177;28;20044;-63
2022/09/01 10:30:05;;;;;;;1.10;0.28;;;25.60;52.70;;;;;;5082141;28;20039;-62
2022/09/01 10:32:32;;;;;;;;;;;25.40;52.80;;;;;;5075882;28;20093;-63
2022/09/01 10:35:00;;;;;;;0.98;0.20;;;25.60;52.10;;;;;;5078917;28;19920;-62
2022/09/01 10:37:26;;;;;;;0.82;0.20;;;25.90;53.40;;;;;;5077065;28;20048;-63
2022/09/01 10:40:12;;;;;;;1.70;0.30;;;26.30;53.60;;;;;;5088013;28;20522;-63
2022/09/01 10:42:41;;;;;;;0.73;0.17;;;26.60;51.10;;;;;;5082119;28;20080;-63
2022/09/01 10:45:32;;;;;;;2.05;0.35;;;26.60;51.30;;;;;;5087565;28;20040;-62
2022/09/01 10:48:20;;;;;;;1.77;0.30;;;26.10;49.60;;;;;;5078984;28;20072;-62
2022/09/01 10:50:47;;;;;;;2.47;0.30;;;25.60;51.70;;;;;;5083121;28;20032;-62
2022/09/01 10:53:34;;;;;;;2.67;0.45;;;25.60;52.30;;;;;;5080066;28;20037;-63
2022/09/01 10:56:13;;;;;;;3.50;0.30;;;26.00;51.40;;;;;;5078975;28;20051;-63
2022/09/01 10:58:58;;;;;;;2.20;0.40;;;25.70;51.90;;;;;;5081631;28;20033;-63
2022/09/01 11:01:39;;;;;;;2.20;0.30;;;25.60;51.00;;;;;;5082307;28;20109;-64
2022/09/01 11:04:06;;;;;;;2.15;0.28;;;25.70;50.30;;;;;;5078800;28;20118;-64
2022/09/01 11:06:44;;;;;;;0.55;0.20;;;25.50;50.70;;;;;;5085154;28;20045;-64
2022/09/01 11:09:33;;;;;;;2.60;0.30;;;24.90;50.30;;;;;;5082624;28;20048;-63
2022/09/01 11:12:20;;;;;;;2.33;0.30;;;24.80;51.60;;;;;;5081786;28;20067;-63
2022/09/01 11:15:00;;;;;;;1.20;0.30;;;24.70;51.10;;;;;;5084931;28;20041;-62
2022/09/01 11:17:38;;;;;;;2.40;0.40;;;24.20;51.90;;;;;;5076516;28;20052;-65
2022/09/01 11:20:22;;;;;;;1.60;0.30;;;23.80;54.20;;;;;;5078983;28;20065;-62
2022/09/01 11:23:11;;;;;;;0.77;0.25;;;23.40;53.60;;;;;;5080553;28;20075;-61
2022/09/01 11:25:47;;;;;;;3.33;0.50;;;23.10;54.50;;;;;;5079427;28;20036;-62
2022/09/01 11:28:15;;;;;;;1.52;0.30;;;22.90;54.30;;;;;;5078111;28;20516;-62
2022/09/01 11:30:51;;;;;;;1.02;0.22;;;22.80;54.90;;;;;;5082994;28;20044;-63
2022/09/01 11:33:49;;;;;;;1.05;0.40;;;23.00;55.80;;;;;;5080350;28;20055;-63
2022/09/01 11:36:22;;;;;;;1.58;0.57;;;23.20;55.40;;;;;;5080393;28;20131;-62
2022/09/01 11:39:12;;;;;;;3.35;0.40;;;23.30;57.20;;;;;;5083200;28;20037;-62
2022/09/01 11:41:50;;;;;;;1.33;0.38;;;23.60;55.80;;;;;;5081624;28;20143;-62
2022/09/01 11:44:26;;;;;;;2.50;0.20;;;23.90;55.20;;;;;;5078573;28;20130;-62
2022/09/01 11:46:58;;;;;;;1.73;0.13;;;24.60;53.60;;;;;;5080496;28;20051;-62
2022/09/01 11:49:30;;;;;;;0.70;0.20;;;25.00;52.20;;;;;;5058531;28;20056;-62
2022/09/01 11:51:59;;;;;;;2.67;0.30;;;25.30;51.40;;;;;;5076998;28;20043;-63
2022/09/01 11:54:25;;;;;;;0.60;0.28;;;25.20;51.00;;;;;;5077303;28;20079;-62
2022/09/01 11:56:51;;;;;;;1.95;0.20;;;25.30;50.70;;;;;;5080444;28;20393;-62
2022/09/01 11:59:36;;;;;;;1.23;0.30;;;26.00;50.80;;;;;;5081705;28;20539;-62
2022/09/01 12:02:02;;;;;;;1.05;0.57;;;26.60;49.60;;;;;;5080241;28;20040;-62
2022/09/01 12:04:38;;;;;;;2.45;0.20;;;26.90;48.40;;;;;;5076064;28;20472;-61
2022/09/01 12:07:05;;;;;;;2.33;0.20;;;26.30;48.00;;;;;;5080488;28;20048;-66
2022/09/01 12:09:40;;;;;;;3.35;0.30;;;25.40;49.30;;;;;;5079501;28;20480;-65
2022/09/01 12:12:24;;;;;;;1.60;0.20;;;24.80;50.70;;;;;;5065151;28;21479;-67
2022/09/01 12:14:57;;;;;;;1.05;0.17;;;24.80;51.20;;;;;;5077444;28;20142;-65
2022/09/01 12:17:23;;;;;;;2.13;0.50;;;24.50;52.10;;;;;;5082401;28;20391;-67
2022/09/01 12:19:49;;;;;;;1.83;0.47;;;24.20;52.30;;;;;;5062571;28;20044;-66
2022/09/01 12:22:19;;;;;;;2.90;0.40;;;23.70;53.30;;;;;;5079411;28;20036;-65
2022/09/01 12:24:51;;;;;;;2.88;0.40;;;23.40;54.30;;;;;;5076649;28;20045;-66
2022/09/01 12:27:17;;;;;;;4.13;0.30;;;23.50;55.10;;;;;;5065933;28;20045;-68
2022/09/01 12:29:43;;;;;;;0.90;0.30;;;24.60;54.60;;;;;;5056815;28;20032;-69
2022/09/01 12:32:10;;;;;;;2.80;0.52;;;25.70;51.70;;;;;;5061204;28;20039;-66
2022/09/01 12:34:40;;;;;;;2.05;0.30;;;25.90;50.70;;;;;;5083047;28;20074;-67
2022/09/01 12:37:21;;;;;;;0.60;0.15;;;25.20;49.80;;;;;;5058758;28;20665;-65
2022/09/01 12:39:50;;;;;;;0.30;0.20;;;24.40;51.20;;;;;;5078578;28;20049;-66
2022/09/01 12:42:19;;;;;;;3.10;0.25;;;23.90;52.60;;;;;;5045874;28;20035;-67
2022/09/01 12:44:56;;;;;;;0.45;0.20;;;23.50;53.10;;;;;;5078846;28;20147;-66
2022/09/01 12:47:37;;;;;;;2.13;0.30;;;24.10;52.90;;;;;;5062449;28;21263;-68
2022/09/01 12:50:25;;;;;;;0.90;0.20;;;25.20;51.30;;;;;;5078253;28;20173;-68
2022/09/01 12:52:57;;;;;;;0.75;0.20;;;25.70;50.00;;;;;;5064313;28;20226;-68
2022/09/01 12:55:32;;;;;;;1.92;0.40;;;25.40;49.60;;;;;;5057120;28;20036;-64
2022/09/01 12:58:06;;;;;;;2.85;0.20;;;25.00;49.90;;;;;;5076890;28;20039;-64
2022/09/01 13:00:34;;;;;;;1.60;0.30;;;25.40;50.20;;;;;;5080022;28;20045;-65
2022/09/01 13:03:16;;;;;;;2.53;0.40;;;25.20;50.20;;;;;;5075351;28;20063;-65
2022/09/01 13:05:49;;;;;;;2.75;0.30;;;24.60;51.00;;;;;;5061731;28;20052;-65
2022/09/01 13:08:27;;;;;;;4.72;0.32;;;24.10;52.20;;;;;;5075254;28;20077;-65
2022/09/01 13:10:57;;;;;;;1.85;0.30;;;23.90;52.20;;;;;;5079487;28;20127;-65